PWSweather.com
Personal Weather Stations
Station Observations
KTXROWLE6
Ravens Nest, Rowlett, TX 75089

Ravens NestRowlett, TX 75089

Lat: 32.93105, Lon: -96.57368

Elevation: 556

Station Type: Davis Vantage Pro2 6152

http://rowlett.ws

High Low Average
Temperature 96.6°F35.9°C 70.3°F21.3°C 81.0°F27.2°C
Dew Point 73.7°F23.2°C 63.7°F17.6°C 69.7°F20.9°C
Winds 9.7 mph 15.6 kmh Calm Calm 1.0 mph S1.6 kmh S
Wind Gusts 22.0 mph35.4 kmh -- 3.0 mph4.8 kmh
Humidity 90% 41% 71%
Pressure 30.08 in1018.6 mb 29.95 in1014.2 mb -
Precipitation 0.38 in9.7 mm - -
Hour Temp Dew Point Humidity Winds Wind Gusts Pressure Precip Precip Rate Daily Precip Total
12:00 AM 78.7°F25.9°C 70.1°F21.2°C 75% Calm Calm 1.0 mph1.6 kmh 30.06 in1017.9 mb 0.00 in0.0 mm 0.00 in0.0 mm 0.00 in0.0 mm
12:05 AM 78.4°F25.8°C 70.2°F21.2°C 76% Calm Calm -- 30.06 in1017.9 mb 0.00 in0.0 mm 0.00 in0.0 mm 0.00 in0.0 mm
12:10 AM 78.1°F25.6°C 69.9°F21.1°C 76% Calm Calm -- 30.06 in1017.9 mb 0.00 in0.0 mm 0.00 in0.0 mm 0.00 in0.0 mm
12:15 AM 77.7°F25.4°C 69.9°F21.1°C 77% Calm Calm -- 30.06 in1017.9 mb 0.00 in0.0 mm 0.00 in0.0 mm 0.00 in0.0 mm
12:20 AM 77.4°F25.2°C 69.6°F20.9°C 77% Calm Calm -- 30.06 in1017.9 mb 0.00 in0.0 mm 0.00 in0.0 mm 0.00 in0.0 mm
12:25 AM 77.2°F25.1°C 69.8°F21.0°C 78% Calm Calm -- 30.05 in1017.6 mb 0.00 in0.0 mm 0.00 in0.0 mm 0.00 in0.0 mm
12:30 AM 77.1°F25.1°C 69.7°F20.9°C 78% Calm Calm 1.0 mph1.6 kmh 30.05 in1017.6 mb 0.00 in0.0 mm 0.00 in0.0 mm 0.00 in0.0 mm
12:35 AM 77.1°F25.1°C 70.1°F21.2°C 79% Calm Calm 1.0 mph1.6 kmh 30.05 in1017.6 mb 0.00 in0.0 mm 0.00 in0.0 mm 0.00 in0.0 mm
12:40 AM 77.0°F25.0°C 70.0°F21.1°C 79% Calm Calm -- 30.05 in1017.6 mb 0.00 in0.0 mm 0.00 in0.0 mm 0.00 in0.0 mm
12:45 AM 76.8°F24.9°C 69.8°F21.0°C 79% Calm Calm -- 30.05 in1017.6 mb 0.00 in0.0 mm 0.00 in0.0 mm 0.00 in0.0 mm
12:50 AM 76.6°F24.8°C 70.0°F21.1°C 80% Calm Calm -- 30.04 in1017.3 mb 0.00 in0.0 mm 0.00 in0.0 mm 0.00 in0.0 mm
12:55 AM 76.5°F24.7°C 69.9°F21.1°C 80% Calm Calm -- 30.04 in1017.3 mb 0.00 in0.0 mm 0.00 in0.0 mm 0.00 in0.0 mm
01:00 AM 76.4°F24.7°C 70.1°F21.2°C 81% Calm Calm -- 30.04 in1017.3 mb 0.00 in0.0 mm 0.00 in0.0 mm 0.00 in0.0 mm
01:05 AM 76.4°F24.7°C 70.1°F21.2°C 81% Calm Calm -- 30.05 in1017.6 mb 0.00 in0.0 mm 0.00 in0.0 mm 0.00 in0.0 mm
01:10 AM 76.3°F24.6°C 70.0°F21.1°C 81% Calm Calm -- 30.05 in1017.6 mb 0.00 in0.0 mm 0.00 in0.0 mm 0.00 in0.0 mm
01:15 AM 76.2°F24.6°C 69.9°F21.1°C 81% Calm Calm -- 30.04 in1017.3 mb 0.00 in0.0 mm 0.00 in0.0 mm 0.00 in0.0 mm
01:20 AM 76.2°F24.6°C 70.3°F21.3°C 82% Calm Calm -- 30.05 in1017.6 mb 0.00 in0.0 mm 0.00 in0.0 mm 0.00 in0.0 mm
01:25 AM 76.4°F24.7°C 70.5°F21.4°C 82% 0.1 mph SW0.2 kmh SW 1.0 mph1.6 kmh 30.05 in1017.6 mb 0.00 in0.0 mm 0.00 in0.0 mm 0.00 in0.0 mm
01:30 AM 76.4°F24.7°C 70.1°F21.2°C 81% Calm Calm 1.0 mph1.6 kmh 30.04 in1017.3 mb 0.00 in0.0 mm 0.00 in0.0 mm 0.00 in0.0 mm
01:35 AM 76.6°F24.8°C 70.3°F21.3°C 81% Calm Calm 1.0 mph1.6 kmh 30.04 in1017.3 mb 0.00 in0.0 mm 0.00 in0.0 mm 0.00 in0.0 mm
01:40 AM 76.6°F24.8°C 70.3°F21.3°C 81% Calm Calm 1.0 mph1.6 kmh 30.05 in1017.6 mb 0.00 in0.0 mm 0.00 in0.0 mm 0.00 in0.0 mm
01:45 AM 76.4°F24.7°C 70.1°F21.2°C 81% Calm Calm -- 30.05 in1017.6 mb 0.00 in0.0 mm 0.00 in0.0 mm 0.00 in0.0 mm
01:50 AM 76.2°F24.6°C 69.9°F21.1°C 81% Calm Calm -- 30.05 in1017.6 mb 0.00 in0.0 mm 0.00 in0.0 mm 0.00 in0.0 mm
01:55 AM 75.9°F24.4°C 69.6°F20.9°C 81% Calm Calm -- 30.04 in1017.3 mb 0.00 in0.0 mm 0.00 in0.0 mm 0.00 in0.0 mm
02:00 AM 75.8°F24.3°C 69.9°F21.1°C 82% Calm Calm -- 30.04 in1017.3 mb 0.00 in0.0 mm 0.00 in0.0 mm 0.00 in0.0 mm
02:05 AM 76.0°F24.4°C 70.1°F21.2°C 82% 0.1 mph SW0.2 kmh SW 1.0 mph1.6 kmh 30.04 in1017.3 mb 0.00 in0.0 mm 0.00 in0.0 mm 0.00 in0.0 mm
02:10 AM 76.2°F24.6°C 70.3°F21.3°C 82% Calm Calm 1.0 mph1.6 kmh 30.03 in1016.9 mb 0.00 in0.0 mm 0.00 in0.0 mm 0.00 in0.0 mm
02:15 AM 76.5°F24.7°C 70.2°F21.2°C 81% 0.3 mph SSW0.5 kmh SSW 2.0 mph3.2 kmh 30.03 in1016.9 mb 0.00 in0.0 mm 0.00 in0.0 mm 0.00 in0.0 mm
02:20 AM 76.9°F24.9°C 70.6°F21.4°C 81% 0.6 mph SW1.0 kmh SW 2.0 mph3.2 kmh 30.03 in1016.9 mb 0.00 in0.0 mm 0.00 in0.0 mm 0.00 in0.0 mm
02:25 AM 77.1°F25.1°C 70.4°F21.3°C 80% 0.3 mph SW0.5 kmh SW 2.0 mph3.2 kmh 30.03 in1016.9 mb 0.00 in0.0 mm 0.00 in0.0 mm 0.00 in0.0 mm
02:30 AM 77.2°F25.1°C 70.5°F21.4°C 80% 0.3 mph SSW0.5 kmh SSW 2.0 mph3.2 kmh 30.03 in1016.9 mb 0.00 in0.0 mm 0.00 in0.0 mm 0.00 in0.0 mm
02:35 AM 77.1°F25.1°C 70.4°F21.3°C 80% 0.2 mph SW0.3 kmh SW 4.0 mph6.4 kmh 30.03 in1016.9 mb 0.00 in0.0 mm 0.00 in0.0 mm 0.00 in0.0 mm
02:40 AM 77.1°F25.1°C 70.4°F21.3°C 80% 0.1 mph SW0.2 kmh SW 4.0 mph6.4 kmh 30.03 in1016.9 mb 0.00 in0.0 mm 0.00 in0.0 mm 0.00 in0.0 mm
02:45 AM 77.0°F25.0°C 70.3°F21.3°C 80% 0.3 mph SW0.5 kmh SW 2.0 mph3.2 kmh 30.04 in1017.3 mb 0.00 in0.0 mm 0.00 in0.0 mm 0.00 in0.0 mm
02:50 AM 76.9°F24.9°C 70.2°F21.2°C 80% 0.2 mph SSW0.3 kmh SSW 2.0 mph3.2 kmh 30.04 in1017.3 mb 0.00 in0.0 mm 0.00 in0.0 mm 0.00 in0.0 mm
02:55 AM 77.0°F25.0°C 70.3°F21.3°C 80% 0.2 mph SW0.3 kmh SW 1.0 mph1.6 kmh 30.04 in1017.3 mb 0.00 in0.0 mm 0.00 in0.0 mm 0.00 in0.0 mm
03:00 AM 76.9°F24.9°C 70.2°F21.2°C 80% Calm Calm 1.0 mph1.6 kmh 30.04 in1017.3 mb 0.00 in0.0 mm 0.00 in0.0 mm 0.00 in0.0 mm
03:05 AM 76.7°F24.8°C 70.1°F21.2°C 80% Calm Calm -- 30.04 in1017.3 mb 0.00 in0.0 mm 0.00 in0.0 mm 0.00 in0.0 mm
03:10 AM 76.5°F24.7°C 70.2°F21.2°C 81% Calm Calm -- 30.05 in1017.6 mb 0.00 in0.0 mm 0.00 in0.0 mm 0.00 in0.0 mm
03:15 AM 76.4°F24.7°C 70.1°F21.2°C 81% Calm Calm -- 30.05 in1017.6 mb 0.00 in0.0 mm 0.00 in0.0 mm 0.00 in0.0 mm
03:20 AM 76.2°F24.6°C 69.9°F21.1°C 81% Calm Calm -- 30.05 in1017.6 mb 0.00 in0.0 mm 0.00 in0.0 mm 0.00 in0.0 mm
03:25 AM 76.0°F24.4°C 70.1°F21.2°C 82% Calm Calm -- 30.05 in1017.6 mb 0.00 in0.0 mm 0.00 in0.0 mm 0.00 in0.0 mm
03:30 AM 75.8°F24.3°C 69.9°F21.1°C 82% Calm Calm -- 30.05 in1017.6 mb 0.00 in0.0 mm 0.00 in0.0 mm 0.00 in0.0 mm
03:35 AM 75.7°F24.3°C 69.8°F21.0°C 82% Calm Calm -- 30.05 in1017.6 mb 0.00 in0.0 mm 0.00 in0.0 mm 0.00 in0.0 mm
03:40 AM 75.6°F24.2°C 69.7°F20.9°C 82% Calm Calm -- 30.05 in1017.6 mb 0.00 in0.0 mm 0.00 in0.0 mm 0.00 in0.0 mm
03:45 AM 75.6°F24.2°C 69.7°F20.9°C 82% Calm Calm -- 30.05 in1017.6 mb 0.00 in0.0 mm 0.00 in0.0 mm 0.00 in0.0 mm
03:50 AM 75.7°F24.3°C 69.8°F21.0°C 82% Calm Calm -- 30.05 in1017.6 mb 0.00 in0.0 mm 0.00 in0.0 mm 0.00 in0.0 mm
03:55 AM 75.5°F24.2°C 69.6°F20.9°C 82% Calm Calm -- 30.05 in1017.6 mb 0.00 in0.0 mm 0.00 in0.0 mm 0.00 in0.0 mm
04:00 AM 75.3°F24.1°C 69.4°F20.8°C 82% Calm Calm -- 30.05 in1017.6 mb 0.00 in0.0 mm 0.00 in0.0 mm 0.00 in0.0 mm
04:05 AM 75.5°F24.2°C 70.0°F21.1°C 83% Calm Calm -- 30.06 in1017.9 mb 0.00 in0.0 mm 0.00 in0.0 mm 0.00 in0.0 mm
04:10 AM 75.4°F24.1°C 69.9°F21.1°C 83% Calm Calm -- 30.06 in1017.9 mb 0.00 in0.0 mm 0.00 in0.0 mm 0.00 in0.0 mm
04:15 AM 75.3°F24.1°C 69.8°F21.0°C 83% Calm Calm -- 30.06 in1017.9 mb 0.00 in0.0 mm 0.00 in0.0 mm 0.00 in0.0 mm
04:20 AM 75.3°F24.1°C 69.8°F21.0°C 83% Calm Calm -- 30.06 in1017.9 mb 0.00 in0.0 mm 0.00 in0.0 mm 0.00 in0.0 mm
04:25 AM 75.1°F23.9°C 69.6°F20.9°C 83% Calm Calm -- 30.06 in1017.9 mb 0.00 in0.0 mm 0.00 in0.0 mm 0.00 in0.0 mm
04:30 AM 75.1°F23.9°C 69.9°F21.1°C 84% Calm Calm -- 30.06 in1017.9 mb 0.00 in0.0 mm 0.00 in0.0 mm 0.00 in0.0 mm
04:35 AM 75.2°F24.0°C 70.0°F21.1°C 84% Calm Calm 1.0 mph1.6 kmh 30.06 in1017.9 mb 0.00 in0.0 mm 0.00 in0.0 mm 0.00 in0.0 mm
04:40 AM 75.1°F23.9°C 69.9°F21.1°C 84% Calm Calm 1.0 mph1.6 kmh 30.06 in1017.9 mb 0.00 in0.0 mm 0.00 in0.0 mm 0.00 in0.0 mm
04:45 AM 74.9°F23.8°C 70.1°F21.2°C 85% Calm Calm -- 30.06 in1017.9 mb 0.00 in0.0 mm 0.00 in0.0 mm 0.00 in0.0 mm
04:50 AM 75.0°F23.9°C 70.2°F21.2°C 85% Calm Calm -- 30.06 in1017.9 mb 0.00 in0.0 mm 0.00 in0.0 mm 0.00 in0.0 mm
04:55 AM 74.9°F23.8°C 70.1°F21.2°C 85% Calm Calm -- 30.07 in1018.3 mb 0.00 in0.0 mm 0.00 in0.0 mm 0.00 in0.0 mm
05:00 AM 75.0°F23.9°C 70.5°F21.4°C 86% Calm Calm 1.0 mph1.6 kmh 30.07 in1018.3 mb 0.00 in0.0 mm 0.00 in0.0 mm 0.00 in0.0 mm
05:05 AM 75.0°F23.9°C 70.5°F21.4°C 86% Calm Calm 1.0 mph1.6 kmh 30.07 in1018.3 mb 0.00 in0.0 mm 0.00 in0.0 mm 0.00 in0.0 mm
05:10 AM 75.0°F23.9°C 70.5°F21.4°C 86% Calm Calm -- 30.07 in1018.3 mb 0.00 in0.0 mm 0.00 in0.0 mm 0.00 in0.0 mm
05:15 AM 75.0°F23.9°C 70.5°F21.4°C 86% Calm Calm -- 30.07 in1018.3 mb 0.00 in0.0 mm 0.00 in0.0 mm 0.00 in0.0 mm
05:20 AM 75.1°F23.9°C 71.0°F21.7°C 87% Calm Calm 1.0 mph1.6 kmh 30.07 in1018.3 mb 0.00 in0.0 mm 0.00 in0.0 mm 0.00 in0.0 mm
05:25 AM 75.0°F23.9°C 70.5°F21.4°C 86% Calm Calm 1.0 mph1.6 kmh 30.07 in1018.3 mb 0.00 in0.0 mm 0.00 in0.0 mm 0.00 in0.0 mm
05:30 AM 74.8°F23.8°C 70.3°F21.3°C 86% Calm Calm -- 30.07 in1018.3 mb 0.00 in0.0 mm 0.00 in0.0 mm 0.00 in0.0 mm
05:35 AM 74.8°F23.8°C 70.7°F21.5°C 87% Calm Calm -- 30.07 in1018.3 mb 0.00 in0.0 mm 0.00 in0.0 mm 0.00 in0.0 mm
05:40 AM 74.7°F23.7°C 70.6°F21.4°C 87% Calm Calm -- 30.06 in1017.9 mb 0.00 in0.0 mm 0.00 in0.0 mm 0.00 in0.0 mm
05:45 AM 74.8°F23.8°C 70.7°F21.5°C 87% Calm Calm -- 30.07 in1018.3 mb 0.00 in0.0 mm 0.00 in0.0 mm 0.00 in0.0 mm
05:50 AM 74.8°F23.8°C 70.7°F21.5°C 87% Calm Calm 1.0 mph1.6 kmh 30.07 in1018.3 mb 0.00 in0.0 mm 0.00 in0.0 mm 0.00 in0.0 mm
05:55 AM 74.9°F23.8°C 71.1°F21.7°C 88% Calm Calm 1.0 mph1.6 kmh 30.06 in1017.9 mb 0.00 in0.0 mm 0.00 in0.0 mm 0.00 in0.0 mm
06:00 AM 75.0°F23.9°C 71.2°F21.8°C 88% Calm Calm -- 30.06 in1017.9 mb 0.00 in0.0 mm 0.00 in0.0 mm 0.00 in0.0 mm
06:05 AM 75.2°F24.0°C 71.4°F21.9°C 88% Calm Calm 1.0 mph1.6 kmh 30.06 in1017.9 mb 0.00 in0.0 mm 0.00 in0.0 mm 0.00 in0.0 mm
06:10 AM 75.5°F24.2°C 71.3°F21.8°C 87% 0.2 mph SSW0.3 kmh SSW 2.0 mph3.2 kmh 30.07 in1018.3 mb 0.00 in0.0 mm 0.00 in0.0 mm 0.00 in0.0 mm
06:15 AM 75.8°F24.3°C 71.6°F22.0°C 87% Calm Calm 2.0 mph3.2 kmh 30.07 in1018.3 mb 0.00 in0.0 mm 0.00 in0.0 mm 0.00 in0.0 mm
06:20 AM 76.0°F24.4°C 71.5°F21.9°C 86% Calm Calm 1.0 mph1.6 kmh 30.07 in1018.3 mb 0.00 in0.0 mm 0.00 in0.0 mm 0.00 in0.0 mm
06:25 AM 76.2°F24.6°C 71.7°F22.1°C 86% Calm Calm 1.0 mph1.6 kmh 30.07 in1018.3 mb 0.00 in0.0 mm 0.00 in0.0 mm 0.00 in0.0 mm
06:30 AM 76.5°F24.7°C 71.6°F22.0°C 85% 0.3 mph SW0.5 kmh SW 2.0 mph3.2 kmh 30.07 in1018.3 mb 0.00 in0.0 mm 0.00 in0.0 mm 0.00 in0.0 mm
06:35 AM 76.8°F24.9°C 71.6°F22.0°C 84% 0.2 mph SW0.3 kmh SW 2.0 mph3.2 kmh 30.07 in1018.3 mb 0.00 in0.0 mm 0.00 in0.0 mm 0.00 in0.0 mm
06:40 AM 77.2°F25.1°C 72.0°F22.2°C 84% 0.3 mph SSW0.5 kmh SSW 2.0 mph3.2 kmh 30.07 in1018.3 mb 0.00 in0.0 mm 0.00 in0.0 mm 0.00 in0.0 mm
06:45 AM 77.8°F25.4°C 72.2°F22.3°C 83% 0.1 mph SSW0.2 kmh SSW 2.0 mph3.2 kmh 30.07 in1018.3 mb 0.00 in0.0 mm 0.00 in0.0 mm 0.00 in0.0 mm
06:50 AM 78.6°F25.9°C 72.3°F22.4°C 81% 0.4 mph SSW0.6 kmh SSW 1.0 mph1.6 kmh 30.07 in1018.3 mb 0.00 in0.0 mm 0.00 in0.0 mm 0.00 in0.0 mm
06:55 AM 79.5°F26.4°C 72.4°F22.4°C 79% 0.7 mph SSW1.1 kmh SSW 3.0 mph4.8 kmh 30.07 in1018.3 mb 0.00 in0.0 mm 0.00 in0.0 mm 0.00 in0.0 mm
07:00 AM 80.0°F26.7°C 72.5°F22.5°C 78% 0.9 mph SW1.4 kmh SW 3.0 mph4.8 kmh 30.07 in1018.3 mb 0.00 in0.0 mm 0.00 in0.0 mm 0.00 in0.0 mm
07:05 AM 80.5°F26.9°C 73.0°F22.8°C 78% 0.6 mph SW1.0 kmh SW 3.0 mph4.8 kmh 30.07 in1018.3 mb 0.00 in0.0 mm 0.00 in0.0 mm 0.00 in0.0 mm
07:10 AM 81.2°F27.3°C 72.9°F22.7°C 76% 0.5 mph S0.8 kmh S 2.0 mph3.2 kmh 30.07 in1018.3 mb 0.00 in0.0 mm 0.00 in0.0 mm 0.00 in0.0 mm
07:15 AM 82.0°F27.8°C 72.9°F22.7°C 74% 0.3 mph SW0.5 kmh SW 2.0 mph3.2 kmh 30.07 in1018.3 mb 0.00 in0.0 mm 0.00 in0.0 mm 0.00 in0.0 mm
07:20 AM 81.5°F27.5°C 72.4°F22.4°C 74% 1.9 mph SW3.1 kmh SW 4.0 mph6.4 kmh 30.07 in1018.3 mb 0.00 in0.0 mm 0.00 in0.0 mm 0.00 in0.0 mm
07:25 AM 81.2°F27.3°C 72.5°F22.5°C 75% 1.1 mph SSW1.8 kmh SSW 4.0 mph6.4 kmh 30.07 in1018.3 mb 0.00 in0.0 mm 0.00 in0.0 mm 0.00 in0.0 mm
07:30 AM 81.6°F27.6°C 72.5°F22.5°C 74% 0.5 mph SW0.8 kmh SW 3.0 mph4.8 kmh 30.07 in1018.3 mb 0.00 in0.0 mm 0.00 in0.0 mm 0.00 in0.0 mm
07:35 AM 81.8°F27.7°C 72.7°F22.6°C 74% 0.9 mph WSW1.4 kmh WSW 4.0 mph6.4 kmh 30.07 in1018.3 mb 0.00 in0.0 mm 0.00 in0.0 mm 0.00 in0.0 mm
07:40 AM 81.7°F27.6°C 72.6°F22.6°C 74% 1.2 mph SW1.9 kmh SW 4.0 mph6.4 kmh 30.07 in1018.3 mb 0.00 in0.0 mm 0.00 in0.0 mm 0.00 in0.0 mm
07:45 AM 82.0°F27.8°C 73.3°F22.9°C 75% 0.9 mph SW1.4 kmh SW 3.0 mph4.8 kmh 30.07 in1018.3 mb 0.00 in0.0 mm 0.00 in0.0 mm 0.00 in0.0 mm
07:50 AM 82.3°F27.9°C 72.8°F22.7°C 73% 2.0 mph WSW3.2 kmh WSW 4.0 mph6.4 kmh 30.07 in1018.3 mb 0.00 in0.0 mm 0.00 in0.0 mm 0.00 in0.0 mm
07:55 AM 82.7°F28.2°C 73.1°F22.8°C 73% 1.8 mph SW2.9 kmh SW 5.0 mph8.0 kmh 30.07 in1018.3 mb 0.00 in0.0 mm 0.00 in0.0 mm 0.00 in0.0 mm
08:00 AM 83.3°F28.5°C 72.9°F22.7°C 71% 2.2 mph WSW3.5 kmh WSW 8.0 mph12.9 kmh 30.07 in1018.3 mb 0.00 in0.0 mm 0.00 in0.0 mm 0.00 in0.0 mm
08:05 AM 83.9°F28.8°C 72.6°F22.6°C 69% 1.4 mph SW2.3 kmh SW 8.0 mph12.9 kmh 30.07 in1018.3 mb 0.00 in0.0 mm 0.00 in0.0 mm 0.00 in0.0 mm
08:10 AM 84.2°F29.0°C 72.5°F22.5°C 68% 1.8 mph SW2.9 kmh SW 6.0 mph9.7 kmh 30.07 in1018.3 mb 0.00 in0.0 mm 0.00 in0.0 mm 0.00 in0.0 mm
08:15 AM 84.6°F29.2°C 72.4°F22.4°C 67% 2.1 mph SW3.4 kmh SW 7.0 mph11.3 kmh 30.07 in1018.3 mb 0.00 in0.0 mm 0.00 in0.0 mm 0.00 in0.0 mm
08:20 AM 85.2°F29.6°C 72.5°F22.5°C 66% 1.1 mph WSW1.8 kmh WSW 7.0 mph11.3 kmh 30.07 in1018.3 mb 0.00 in0.0 mm 0.00 in0.0 mm 0.00 in0.0 mm
08:25 AM 85.6°F29.8°C 72.0°F22.2°C 64% 1.5 mph SW2.4 kmh SW 3.0 mph4.8 kmh 30.08 in1018.6 mb 0.00 in0.0 mm 0.00 in0.0 mm 0.00 in0.0 mm
08:30 AM 86.0°F30.0°C 72.8°F22.7°C 65% 1.2 mph SW1.9 kmh SW 4.0 mph6.4 kmh 30.08 in1018.6 mb 0.00 in0.0 mm 0.00 in0.0 mm 0.00 in0.0 mm
08:35 AM 86.7°F30.4°C 73.0°F22.8°C 64% 0.9 mph WSW1.4 kmh WSW 4.0 mph6.4 kmh 30.08 in1018.6 mb 0.00 in0.0 mm 0.00 in0.0 mm 0.00 in0.0 mm
08:40 AM 87.4°F30.8°C 73.7°F23.2°C 64% 1.0 mph WSW1.6 kmh WSW 3.0 mph4.8 kmh 30.07 in1018.3 mb 0.00 in0.0 mm 0.00 in0.0 mm 0.00 in0.0 mm
08:45 AM 87.7°F30.9°C 72.5°F22.5°C 61% 1.6 mph SW2.6 kmh SW 5.0 mph8.0 kmh 30.07 in1018.3 mb 0.00 in0.0 mm 0.00 in0.0 mm 0.00 in0.0 mm
08:50 AM 87.9°F31.1°C 72.2°F22.3°C 60% 2.0 mph SW3.2 kmh SW 5.0 mph8.0 kmh 30.07 in1018.3 mb 0.00 in0.0 mm 0.00 in0.0 mm 0.00 in0.0 mm
08:55 AM 88.1°F31.2°C 71.4°F21.9°C 58% 1.6 mph WSW2.6 kmh WSW 4.0 mph6.4 kmh 30.07 in1018.3 mb 0.00 in0.0 mm 0.00 in0.0 mm 0.00 in0.0 mm
09:00 AM 88.6°F31.4°C 73.4°F23.0°C 61% 1.1 mph WSW1.8 kmh WSW 4.0 mph6.4 kmh 30.07 in1018.3 mb 0.00 in0.0 mm 0.00 in0.0 mm 0.00 in0.0 mm
09:05 AM 88.6°F31.4°C 70.3°F21.3°C 55% 2.6 mph W4.2 kmh W 6.0 mph9.7 kmh 30.07 in1018.3 mb 0.00 in0.0 mm 0.00 in0.0 mm 0.00 in0.0 mm
09:10 AM 89.0°F31.7°C 71.8°F22.1°C 57% 1.7 mph WSW2.7 kmh WSW 6.0 mph9.7 kmh 30.07 in1018.3 mb 0.00 in0.0 mm 0.00 in0.0 mm 0.00 in0.0 mm
09:15 AM 89.3°F31.8°C 70.4°F21.3°C 54% 2.4 mph WSW3.9 kmh WSW 4.0 mph6.4 kmh 30.07 in1018.3 mb 0.00 in0.0 mm 0.00 in0.0 mm 0.00 in0.0 mm
09:20 AM 89.6°F32.0°C 70.7°F21.5°C 54% 2.3 mph WSW3.7 kmh WSW 5.0 mph8.0 kmh 30.07 in1018.3 mb 0.00 in0.0 mm 0.00 in0.0 mm 0.00 in0.0 mm
09:25 AM 89.3°F31.8°C 70.4°F21.3°C 54% 3.2 mph WSW5.1 kmh WSW 6.0 mph9.7 kmh 30.07 in1018.3 mb 0.00 in0.0 mm 0.00 in0.0 mm 0.00 in0.0 mm
09:30 AM 89.3°F31.8°C 71.0°F21.7°C 55% 3.1 mph WSW5.0 kmh WSW 6.0 mph9.7 kmh 30.07 in1018.3 mb 0.00 in0.0 mm 0.00 in0.0 mm 0.00 in0.0 mm
09:35 AM 89.2°F31.8°C 70.3°F21.3°C 54% 3.8 mph W6.1 kmh W 7.0 mph11.3 kmh 30.07 in1018.3 mb 0.00 in0.0 mm 0.00 in0.0 mm 0.00 in0.0 mm
09:40 AM 89.5°F31.9°C 70.6°F21.4°C 54% 3.3 mph WSW5.3 kmh WSW 8.0 mph12.9 kmh 30.07 in1018.3 mb 0.00 in0.0 mm 0.00 in0.0 mm 0.00 in0.0 mm
09:45 AM 89.9°F32.2°C 69.9°F21.1°C 52% 2.8 mph WSW4.5 kmh WSW 8.0 mph12.9 kmh 30.07 in1018.3 mb 0.00 in0.0 mm 0.00 in0.0 mm 0.00 in0.0 mm
09:50 AM 90.0°F32.2°C 70.5°F21.4°C 53% 3.2 mph W5.1 kmh W 6.0 mph9.7 kmh 30.07 in1018.3 mb 0.00 in0.0 mm 0.00 in0.0 mm 0.00 in0.0 mm
09:55 AM 89.8°F32.1°C 70.3°F21.3°C 53% 3.8 mph W6.1 kmh W 9.0 mph14.5 kmh 30.08 in1018.6 mb 0.00 in0.0 mm 0.00 in0.0 mm 0.00 in0.0 mm
10:00 AM 89.9°F32.2°C 69.3°F20.7°C 51% 2.4 mph W3.9 kmh W 9.0 mph14.5 kmh 30.07 in1018.3 mb 0.00 in0.0 mm 0.00 in0.0 mm 0.00 in0.0 mm
10:05 AM 90.1°F32.3°C 71.7°F22.1°C 55% 2.4 mph W3.9 kmh W 6.0 mph9.7 kmh 30.08 in1018.6 mb 0.00 in0.0 mm 0.00 in0.0 mm 0.00 in0.0 mm
10:10 AM 90.9°F32.7°C 70.8°F21.6°C 52% 0.7 mph SW1.1 kmh SW 6.0 mph9.7 kmh 30.08 in1018.6 mb 0.00 in0.0 mm 0.00 in0.0 mm 0.00 in0.0 mm
10:15 AM 90.8°F32.7°C 70.1°F21.2°C 51% 1.6 mph WNW2.6 kmh WNW 3.0 mph4.8 kmh 30.08 in1018.6 mb 0.00 in0.0 mm 0.00 in0.0 mm 0.00 in0.0 mm
10:20 AM 91.2°F32.9°C 72.2°F22.3°C 54% 1.3 mph NNW2.1 kmh NNW 4.0 mph6.4 kmh 30.08 in1018.6 mb 0.00 in0.0 mm 0.00 in0.0 mm 0.00 in0.0 mm
10:25 AM 91.0°F32.8°C 71.5°F21.9°C 53% 2.2 mph WNW3.5 kmh WNW 6.0 mph9.7 kmh 30.08 in1018.6 mb 0.00 in0.0 mm 0.00 in0.0 mm 0.00 in0.0 mm
10:30 AM 91.0°F32.8°C 71.5°F21.9°C 53% 2.6 mph WNW4.2 kmh WNW 6.0 mph9.7 kmh 30.08 in1018.6 mb 0.00 in0.0 mm 0.00 in0.0 mm 0.00 in0.0 mm
10:35 AM 91.0°F32.8°C 70.3°F21.3°C 51% 1.5 mph WNW2.4 kmh WNW 5.0 mph8.0 kmh 30.08 in1018.6 mb 0.00 in0.0 mm 0.00 in0.0 mm 0.00 in0.0 mm
10:40 AM 91.0°F32.8°C 72.0°F22.2°C 54% 1.7 mph W2.7 kmh W 4.0 mph6.4 kmh 30.07 in1018.3 mb 0.00 in0.0 mm 0.00 in0.0 mm 0.00 in0.0 mm
10:45 AM 91.2°F32.9°C 71.1°F21.7°C 52% 2.1 mph WSW3.4 kmh WSW 5.0 mph8.0 kmh 30.07 in1018.3 mb 0.00 in0.0 mm 0.00 in0.0 mm 0.00 in0.0 mm
10:50 AM 91.4°F33.0°C 70.1°F21.2°C 50% 1.8 mph WNW2.9 kmh WNW 5.0 mph8.0 kmh 30.07 in1018.3 mb 0.00 in0.0 mm 0.00 in0.0 mm 0.00 in0.0 mm
10:55 AM 91.4°F33.0°C 71.3°F21.8°C 52% 1.3 mph WNW2.1 kmh WNW 5.0 mph8.0 kmh 30.07 in1018.3 mb 0.00 in0.0 mm 0.00 in0.0 mm 0.00 in0.0 mm
11:00 AM 91.5°F33.1°C 71.3°F21.8°C 52% 1.5 mph WSW2.4 kmh WSW 4.0 mph6.4 kmh 30.07 in1018.3 mb 0.00 in0.0 mm 0.00 in0.0 mm 0.00 in0.0 mm
11:05 AM 92.1°F33.4°C 71.3°F21.8°C 51% 2.0 mph WNW3.2 kmh WNW 4.0 mph6.4 kmh 30.07 in1018.3 mb 0.00 in0.0 mm 0.00 in0.0 mm 0.00 in0.0 mm
11:10 AM 92.4°F33.6°C 70.4°F21.3°C 49% 1.9 mph WSW3.1 kmh WSW 4.0 mph6.4 kmh 30.07 in1018.3 mb 0.00 in0.0 mm 0.00 in0.0 mm 0.00 in0.0 mm
11:15 AM 93.2°F34.0°C 70.5°F21.4°C 48% 1.2 mph SW1.9 kmh SW 4.0 mph6.4 kmh 30.07 in1018.3 mb 0.00 in0.0 mm 0.00 in0.0 mm 0.00 in0.0 mm
11:20 AM 93.0°F33.9°C 71.6°F22.0°C 50% 1.3 mph WSW2.1 kmh WSW 4.0 mph6.4 kmh 30.07 in1018.3 mb 0.00 in0.0 mm 0.00 in0.0 mm 0.00 in0.0 mm
11:25 AM 93.1°F33.9°C 70.5°F21.4°C 48% 0.7 mph W1.1 kmh W 4.0 mph6.4 kmh 30.07 in1018.3 mb 0.00 in0.0 mm 0.00 in0.0 mm 0.00 in0.0 mm
11:30 AM 93.3°F34.1°C 70.6°F21.4°C 48% 1.0 mph WSW1.6 kmh WSW 5.0 mph8.0 kmh 30.06 in1017.9 mb 0.00 in0.0 mm 0.00 in0.0 mm 0.00 in0.0 mm
11:35 AM 94.0°F34.4°C 68.7°F20.4°C 44% 1.0 mph NNE1.6 kmh NNE 5.0 mph8.0 kmh 30.06 in1017.9 mb 0.00 in0.0 mm 0.00 in0.0 mm 0.00 in0.0 mm
11:40 AM 93.9°F34.4°C 69.9°F21.1°C 46% 1.5 mph WNW2.4 kmh WNW 4.0 mph6.4 kmh 30.06 in1017.9 mb 0.00 in0.0 mm 0.00 in0.0 mm 0.00 in0.0 mm
11:45 AM 94.0°F34.4°C 68.7°F20.4°C 44% 1.6 mph NW2.6 kmh NW 4.0 mph6.4 kmh 30.06 in1017.9 mb 0.00 in0.0 mm 0.00 in0.0 mm 0.00 in0.0 mm
11:50 AM 94.4°F34.7°C 69.7°F20.9°C 45% 1.1 mph WNW1.8 kmh WNW 4.0 mph6.4 kmh 30.06 in1017.9 mb 0.00 in0.0 mm 0.00 in0.0 mm 0.00 in0.0 mm
11:55 AM 95.0°F35.0°C 68.3°F20.2°C 42% 1.1 mph S1.8 kmh S 4.0 mph6.4 kmh 30.05 in1017.6 mb 0.00 in0.0 mm 0.00 in0.0 mm 0.00 in0.0 mm
12:00 PM 94.0°F34.4°C 68.0°F20.0°C 43% 1.8 mph ESE2.9 kmh ESE 4.0 mph6.4 kmh 30.05 in1017.6 mb 0.00 in0.0 mm 0.00 in0.0 mm 0.00 in0.0 mm
12:05 PM 94.5°F34.7°C 71.1°F21.7°C 47% 0.6 mph NE1.0 kmh NE 4.0 mph6.4 kmh 30.05 in1017.6 mb 0.00 in0.0 mm 0.00 in0.0 mm 0.00 in0.0 mm
12:10 PM 95.2°F35.1°C 71.1°F21.7°C 46% 1.8 mph NNE2.9 kmh NNE 5.0 mph8.0 kmh 30.05 in1017.6 mb 0.00 in0.0 mm 0.00 in0.0 mm 0.00 in0.0 mm
12:15 PM 94.7°F34.8°C 71.3°F21.8°C 47% 2.5 mph ESE4.0 kmh ESE 7.0 mph11.3 kmh 30.05 in1017.6 mb 0.00 in0.0 mm 0.00 in0.0 mm 0.00 in0.0 mm
12:20 PM 93.6°F34.2°C 71.5°F21.9°C 49% 1.7 mph SE2.7 kmh SE 7.0 mph11.3 kmh 30.04 in1017.3 mb 0.00 in0.0 mm 0.00 in0.0 mm 0.00 in0.0 mm
12:25 PM 92.5°F33.6°C 69.3°F20.7°C 47% 2.1 mph ESE3.4 kmh ESE 6.0 mph9.7 kmh 30.04 in1017.3 mb 0.00 in0.0 mm 0.00 in0.0 mm 0.00 in0.0 mm
12:30 PM 92.6°F33.7°C 69.4°F20.8°C 47% 1.8 mph ESE2.9 kmh ESE 6.0 mph9.7 kmh 30.04 in1017.3 mb 0.00 in0.0 mm 0.00 in0.0 mm 0.00 in0.0 mm
12:35 PM 92.6°F33.7°C 69.4°F20.8°C 47% 0.9 mph ESE1.4 kmh ESE 4.0 mph6.4 kmh 30.04 in1017.3 mb 0.00 in0.0 mm 0.00 in0.0 mm 0.00 in0.0 mm
12:40 PM 93.3°F34.1°C 71.8°F22.1°C 50% 0.3 mph SE0.5 kmh SE 2.0 mph3.2 kmh 30.03 in1016.9 mb 0.00 in0.0 mm 0.00 in0.0 mm 0.00 in0.0 mm
12:45 PM 94.1°F34.5°C 68.8°F20.4°C 44% 0.4 mph SE0.6 kmh SE 2.0 mph3.2 kmh 30.03 in1016.9 mb 0.00 in0.0 mm 0.00 in0.0 mm 0.00 in0.0 mm
12:50 PM 94.5°F34.7°C 69.2°F20.7°C 44% 1.1 mph ESE1.8 kmh ESE 3.0 mph4.8 kmh 30.03 in1016.9 mb 0.00 in0.0 mm 0.00 in0.0 mm 0.00 in0.0 mm
12:55 PM 95.2°F35.1°C 69.1°F20.6°C 43% 0.6 mph W1.0 kmh W 3.0 mph4.8 kmh 30.02 in1016.6 mb 0.00 in0.0 mm 0.00 in0.0 mm 0.00 in0.0 mm
01:00 PM 95.2°F35.1°C 71.7°F22.1°C 47% 1.4 mph SE2.3 kmh SE 4.0 mph6.4 kmh 30.02 in1016.6 mb 0.00 in0.0 mm 0.00 in0.0 mm 0.00 in0.0 mm
01:05 PM 94.4°F34.7°C 71.6°F22.0°C 48% 2.1 mph ESE3.4 kmh ESE 6.0 mph9.7 kmh 30.02 in1016.6 mb 0.00 in0.0 mm 0.00 in0.0 mm 0.00 in0.0 mm
01:10 PM 94.4°F34.7°C 71.0°F21.7°C 47% 1.9 mph ESE3.1 kmh ESE 6.0 mph9.7 kmh 30.02 in1016.6 mb 0.00 in0.0 mm 0.00 in0.0 mm 0.00 in0.0 mm
01:15 PM 94.4°F34.7°C 69.1°F20.6°C 44% 2.9 mph ESE4.7 kmh ESE 5.0 mph8.0 kmh 30.02 in1016.6 mb 0.00 in0.0 mm 0.00 in0.0 mm 0.00 in0.0 mm
01:20 PM 94.1°F34.5°C 72.0°F22.2°C 49% 2.5 mph ESE4.0 kmh ESE 5.0 mph8.0 kmh 30.01 in1016.3 mb 0.00 in0.0 mm 0.00 in0.0 mm 0.00 in0.0 mm
01:25 PM 93.6°F34.2°C 69.7°F20.9°C 46% 4.0 mph ESE6.4 kmh ESE 8.0 mph12.9 kmh 30.01 in1016.3 mb 0.00 in0.0 mm 0.00 in0.0 mm 0.00 in0.0 mm
01:30 PM 93.9°F34.4°C 71.8°F22.1°C 49% 3.7 mph ESE6.0 kmh ESE 8.0 mph12.9 kmh 30.01 in1016.3 mb 0.00 in0.0 mm 0.00 in0.0 mm 0.00 in0.0 mm
01:35 PM 94.3°F34.6°C 70.3°F21.3°C 46% 2.1 mph ESE3.4 kmh ESE 8.0 mph12.9 kmh 30.01 in1016.3 mb 0.00 in0.0 mm 0.00 in0.0 mm 0.00 in0.0 mm
01:40 PM 93.5°F34.2°C 70.2°F21.2°C 47% 3.5 mph ESE5.6 kmh ESE 8.0 mph12.9 kmh 30.01 in1016.3 mb 0.00 in0.0 mm 0.00 in0.0 mm 0.00 in0.0 mm
01:45 PM 93.6°F34.2°C 71.5°F21.9°C 49% 3.4 mph SE5.5 kmh SE 8.0 mph12.9 kmh 30.00 in1015.9 mb 0.00 in0.0 mm 0.00 in0.0 mm 0.00 in0.0 mm
01:50 PM 94.0°F34.4°C 71.3°F21.8°C 48% 1.9 mph SE3.1 kmh SE 5.0 mph8.0 kmh 30.00 in1015.9 mb 0.00 in0.0 mm 0.00 in0.0 mm 0.00 in0.0 mm
01:55 PM 94.4°F34.7°C 71.0°F21.7°C 47% 2.4 mph SE3.9 kmh SE 5.0 mph8.0 kmh 30.00 in1015.9 mb 0.00 in0.0 mm 0.00 in0.0 mm 0.00 in0.0 mm
02:00 PM 94.2°F34.6°C 68.9°F20.5°C 44% 2.3 mph ESE3.7 kmh ESE 5.0 mph8.0 kmh 30.00 in1015.9 mb 0.00 in0.0 mm 0.00 in0.0 mm 0.00 in0.0 mm
02:05 PM 94.5°F34.7°C 72.3°F22.4°C 49% 1.6 mph ESE2.6 kmh ESE 5.0 mph8.0 kmh 29.99 in1015.6 mb 0.00 in0.0 mm 0.00 in0.0 mm 0.00 in0.0 mm
02:10 PM 94.3°F34.6°C 69.0°F20.6°C 44% 2.0 mph ESE3.2 kmh ESE 6.0 mph9.7 kmh 29.99 in1015.6 mb 0.00 in0.0 mm 0.00 in0.0 mm 0.00 in0.0 mm
02:15 PM 94.2°F34.6°C 70.2°F21.2°C 46% 2.3 mph ESE3.7 kmh ESE 7.0 mph11.3 kmh 29.99 in1015.6 mb 0.00 in0.0 mm 0.00 in0.0 mm 0.00 in0.0 mm
02:20 PM 94.8°F34.9°C 71.4°F21.9°C 47% 0.5 mph E0.8 kmh E 7.0 mph11.3 kmh 29.99 in1015.6 mb 0.00 in0.0 mm 0.00 in0.0 mm 0.00 in0.0 mm
02:25 PM 94.8°F34.9°C 68.8°F20.4°C 43% 1.1 mph WNW1.8 kmh WNW 3.0 mph4.8 kmh 29.98 in1015.2 mb 0.00 in0.0 mm 0.00 in0.0 mm 0.00 in0.0 mm
02:30 PM 94.4°F34.7°C 69.7°F20.9°C 45% 0.2 mph E0.3 kmh E 3.0 mph4.8 kmh 29.98 in1015.2 mb 0.00 in0.0 mm 0.00 in0.0 mm 0.00 in0.0 mm
02:35 PM 95.6°F35.3°C 71.5°F21.9°C 46% 0.5 mph ESE0.8 kmh ESE 3.0 mph4.8 kmh 29.98 in1015.2 mb 0.00 in0.0 mm 0.00 in0.0 mm 0.00 in0.0 mm
02:40 PM 95.6°F35.3°C 71.5°F21.9°C 46% 1.3 mph SE2.1 kmh SE 4.0 mph6.4 kmh 29.98 in1015.2 mb 0.00 in0.0 mm 0.00 in0.0 mm 0.00 in0.0 mm
02:45 PM 95.7°F35.4°C 73.4°F23.0°C 49% 1.7 mph ESE2.7 kmh ESE 4.0 mph6.4 kmh 29.98 in1015.2 mb 0.00 in0.0 mm 0.00 in0.0 mm 0.00 in0.0 mm
02:50 PM 95.9°F35.5°C 71.1°F21.7°C 45% 1.4 mph S2.3 kmh S 5.0 mph8.0 kmh 29.98 in1015.2 mb 0.00 in0.0 mm 0.00 in0.0 mm 0.00 in0.0 mm
02:55 PM 95.9°F35.5°C 69.1°F20.6°C 42% 1.6 mph ESE2.6 kmh ESE 5.0 mph8.0 kmh 29.98 in1015.2 mb 0.00 in0.0 mm 0.00 in0.0 mm 0.00 in0.0 mm
03:00 PM 95.0°F35.0°C 70.9°F21.6°C 46% 2.1 mph ESE3.4 kmh ESE 4.0 mph6.4 kmh 29.97 in1014.9 mb 0.00 in0.0 mm 0.00 in0.0 mm 0.00 in0.0 mm
03:05 PM 93.9°F34.4°C 69.3°F20.7°C 45% 2.6 mph SE4.2 kmh SE 5.0 mph8.0 kmh 29.97 in1014.9 mb 0.00 in0.0 mm 0.00 in0.0 mm 0.00 in0.0 mm
03:10 PM 94.3°F34.6°C 69.6°F20.9°C 45% 2.5 mph SE4.0 kmh SE 6.0 mph9.7 kmh 29.97 in1014.9 mb 0.00 in0.0 mm 0.00 in0.0 mm 0.00 in0.0 mm
03:15 PM 94.9°F34.9°C 68.9°F20.5°C 43% 1.8 mph ESE2.9 kmh ESE 6.0 mph9.7 kmh 29.97 in1014.9 mb 0.00 in0.0 mm 0.00 in0.0 mm 0.00 in0.0 mm
03:20 PM 95.2°F35.1°C 71.7°F22.1°C 47% 2.6 mph ESE4.2 kmh ESE 6.0 mph9.7 kmh 29.97 in1014.9 mb 0.00 in0.0 mm 0.00 in0.0 mm 0.00 in0.0 mm
03:25 PM 95.5°F35.3°C 68.0°F20.0°C 41% 1.6 mph SE2.6 kmh SE 6.0 mph9.7 kmh 29.97 in1014.9 mb 0.00 in0.0 mm 0.00 in0.0 mm 0.00 in0.0 mm
03:30 PM 96.6°F35.9°C 69.7°F20.9°C 42% 1.2 mph ESE1.9 kmh ESE 5.0 mph8.0 kmh 29.97 in1014.9 mb 0.00 in0.0 mm 0.00 in0.0 mm 0.00 in0.0 mm
03:35 PM 96.1°F35.6°C 69.9°F21.1°C 43% 2.5 mph SE4.0 kmh SE 8.0 mph12.9 kmh 29.96 in1014.6 mb 0.00 in0.0 mm 0.00 in0.0 mm 0.00 in0.0 mm
03:40 PM 95.2°F35.1°C 69.8°F21.0°C 44% 2.1 mph SE3.4 kmh SE 8.0 mph12.9 kmh 29.97 in1014.9 mb 0.00 in0.0 mm 0.00 in0.0 mm 0.00 in0.0 mm
03:45 PM 93.1°F33.9°C 69.2°F20.7°C 46% 3.1 mph SE5.0 kmh SE 8.0 mph12.9 kmh 29.96 in1014.6 mb 0.00 in0.0 mm 0.00 in0.0 mm 0.00 in0.0 mm
03:50 PM 92.1°F33.4°C 68.9°F20.5°C 47% 2.5 mph SE4.0 kmh SE 8.0 mph12.9 kmh 29.95 in1014.2 mb 0.00 in0.0 mm 0.00 in0.0 mm 0.00 in0.0 mm
03:55 PM 91.4°F33.0°C 68.9°F20.5°C 48% 3.7 mph ESE6.0 kmh ESE 8.0 mph12.9 kmh 29.96 in1014.6 mb 0.00 in0.0 mm 0.00 in0.0 mm 0.00 in0.0 mm
04:00 PM 90.9°F32.7°C 69.1°F20.6°C 49% 4.2 mph SE6.8 kmh SE 8.0 mph12.9 kmh 29.96 in1014.6 mb 0.00 in0.0 mm 0.00 in0.0 mm 0.00 in0.0 mm
04:05 PM 90.0°F32.2°C 67.6°F19.8°C 48% 2.3 mph SE3.7 kmh SE 8.0 mph12.9 kmh 29.95 in1014.2 mb 0.00 in0.0 mm 0.00 in0.0 mm 0.00 in0.0 mm
04:10 PM 89.5°F31.9°C 68.4°F20.2°C 50% 3.3 mph ESE5.3 kmh ESE 9.0 mph14.5 kmh 29.96 in1014.6 mb 0.00 in0.0 mm 0.00 in0.0 mm 0.00 in0.0 mm
04:15 PM 88.0°F31.1°C 69.8°F21.0°C 55% 6.0 mph SE9.7 kmh SE 10.0 mph16.1 kmh 29.97 in1014.9 mb 0.00 in0.0 mm 0.00 in0.0 mm 0.00 in0.0 mm
04:20 PM 86.1°F30.1°C 68.5°F20.3°C 56% 7.8 mph ESE12.6 kmh ESE 22.0 mph35.4 kmh 29.97 in1014.9 mb 0.00 in0.0 mm 0.00 in0.0 mm 0.00 in0.0 mm
04:25 PM 83.2°F28.4°C 63.7°F17.6°C 52% 7.8 mph ESE12.6 kmh ESE 22.0 mph35.4 kmh 29.97 in1014.9 mb 0.00 in0.0 mm 0.00 in0.0 mm 0.00 in0.0 mm
04:30 PM 80.5°F26.9°C 65.8°F18.8°C 61% 6.9 mph ESE11.1 kmh ESE 19.0 mph30.6 kmh 29.98 in1015.2 mb 0.01 in0.3 mm 0.12 in3.0 mm 0.01 in0.3 mm
04:35 PM 77.5°F25.3°C 66.1°F18.9°C 68% 4.4 mph ESE7.1 kmh ESE 14.0 mph22.5 kmh 29.97 in1014.9 mb 0.10 in2.5 mm 1.08 in27.4 mm 0.10 in2.5 mm
04:40 PM 76.4°F24.7°C 67.1°F19.5°C 73% 6.2 mph SE10.0 kmh SE 15.0 mph24.1 kmh 29.96 in1014.6 mb 0.12 in3.0 mm 0.24 in6.1 mm 0.12 in3.0 mm
04:45 PM 77.3°F25.2°C 65.9°F18.8°C 68% 9.7 mph SE15.6 kmh SE 19.0 mph30.6 kmh 29.96 in1014.6 mb 0.15 in3.8 mm 0.36 in9.1 mm 0.15 in3.8 mm
04:50 PM 76.0°F24.4°C 65.9°F18.8°C 71% 9.0 mph SE14.5 kmh SE 19.0 mph30.6 kmh 29.96 in1014.6 mb 0.22 in5.6 mm 0.84 in21.3 mm 0.22 in5.6 mm
04:55 PM 75.3°F24.1°C 65.6°F18.7°C 72% 6.8 mph SE10.9 kmh SE 16.0 mph25.7 kmh 29.96 in1014.6 mb 0.28 in7.1 mm 0.72 in18.3 mm 0.28 in7.1 mm
05:00 PM 75.3°F24.1°C 65.2°F18.4°C 71% 4.1 mph SE6.6 kmh SE 10.0 mph16.1 kmh 29.96 in1014.6 mb 0.31 in7.9 mm 0.03 in0.8 mm 0.31 in7.9 mm
05:05 PM 75.0°F23.9°C 65.3°F18.5°C 72% 2.6 mph SE4.2 kmh SE 8.0 mph12.9 kmh 29.96 in1014.6 mb 0.31 in7.9 mm 0.00 in0.0 mm 0.31 in7.9 mm
05:10 PM 74.6°F23.7°C 65.8°F18.8°C 74% 0.8 mph SE1.3 kmh SE 5.0 mph8.0 kmh 29.95 in1014.2 mb 0.31 in7.9 mm 0.00 in0.0 mm 0.31 in7.9 mm
05:15 PM 74.2°F23.4°C 66.5°F19.2°C 77% Calm Calm 3.0 mph4.8 kmh 29.96 in1014.6 mb 0.31 in7.9 mm 0.00 in0.0 mm 0.31 in7.9 mm
05:20 PM 73.9°F23.3°C 66.6°F19.2°C 78% Calm Calm -- 29.96 in1014.6 mb 0.31 in7.9 mm 0.00 in0.0 mm 0.31 in7.9 mm
05:25 PM 73.8°F23.2°C 66.5°F19.2°C 78% Calm Calm -- 29.96 in1014.6 mb 0.31 in7.9 mm 0.00 in0.0 mm 0.31 in7.9 mm
05:30 PM 74.1°F23.4°C 67.5°F19.7°C 80% 1.4 mph SW2.3 kmh SW 5.0 mph8.0 kmh 29.98 in1015.2 mb 0.30 in7.6 mm 0.00 in0.0 mm 0.31 in7.9 mm
05:35 PM 74.6°F23.7°C 67.6°F19.8°C 79% 1.0 mph SSW1.6 kmh SSW 6.0 mph9.7 kmh 29.98 in1015.2 mb 0.21 in5.3 mm 0.00 in0.0 mm 0.31 in7.9 mm
05:40 PM 74.7°F23.7°C 67.4°F19.7°C 78% 0.4 mph E0.6 kmh E 6.0 mph9.7 kmh 29.98 in1015.2 mb 0.19 in4.8 mm 0.00 in0.0 mm 0.31 in7.9 mm
05:45 PM 75.3°F24.1°C 66.8°F19.3°C 75% 0.8 mph WSW1.3 kmh WSW 4.0 mph6.4 kmh 29.99 in1015.6 mb 0.16 in4.1 mm 0.00 in0.0 mm 0.31 in7.9 mm
05:50 PM 75.9°F24.4°C 67.8°F19.9°C 76% 0.6 mph NW1.0 kmh NW 4.0 mph6.4 kmh 30.02 in1016.6 mb 0.09 in2.3 mm 0.00 in0.0 mm 0.31 in7.9 mm
05:55 PM 75.8°F24.3°C 66.1°F18.9°C 72% 2.4 mph NW3.9 kmh NW 8.0 mph12.9 kmh 30.03 in1016.9 mb 0.03 in0.8 mm 0.00 in0.0 mm 0.31 in7.9 mm
06:00 PM 76.0°F24.4°C 66.3°F19.1°C 72% 1.6 mph NNW2.6 kmh NNW 8.0 mph12.9 kmh 30.02 in1016.6 mb 0.00 in0.0 mm 0.00 in0.0 mm 0.31 in7.9 mm
06:05 PM 75.5°F24.2°C 66.6°F19.2°C 74% 1.2 mph N1.9 kmh N 7.0 mph11.3 kmh 30.02 in1016.6 mb 0.01 in0.3 mm 0.12 in3.0 mm 0.32 in8.1 mm
06:10 PM 75.0°F23.9°C 66.5°F19.2°C 75% 0.3 mph N0.5 kmh N 4.0 mph6.4 kmh 30.01 in1016.3 mb 0.03 in0.8 mm 0.24 in6.1 mm 0.34 in8.6 mm
06:15 PM 74.5°F23.6°C 66.8°F19.3°C 77% 1.2 mph WSW1.9 kmh WSW 2.0 mph3.2 kmh 29.99 in1015.6 mb 0.05 in1.3 mm 0.24 in6.1 mm 0.36 in9.1 mm
06:20 PM 74.0°F23.3°C 66.7°F19.3°C 78% 0.3 mph W0.5 kmh W 2.0 mph3.2 kmh 29.98 in1015.2 mb 0.07 in1.8 mm 0.24 in6.1 mm 0.38 in9.7 mm
06:25 PM 73.6°F23.1°C 66.3°F19.1°C 78% Calm Calm 1.0 mph1.6 kmh 29.97 in1014.9 mb 0.07 in1.8 mm 0.00 in0.0 mm 0.38 in9.7 mm
06:30 PM 73.3°F22.9°C 66.7°F19.3°C 80% Calm Calm -- 29.97 in1014.9 mb 0.07 in1.8 mm 0.00 in0.0 mm 0.38 in9.7 mm
06:35 PM 73.0°F22.8°C 66.8°F19.3°C 81% Calm Calm -- 29.97 in1014.9 mb 0.07 in1.8 mm 0.00 in0.0 mm 0.38 in9.7 mm
06:40 PM 72.9°F22.7°C 67.1°F19.5°C 82% 0.1 mph NNE0.2 kmh NNE 1.0 mph1.6 kmh 29.97 in1014.9 mb 0.07 in1.8 mm 0.00 in0.0 mm 0.38 in9.7 mm
06:45 PM 72.8°F22.7°C 67.3°F19.6°C 83% 0.3 mph NE0.5 kmh NE 2.0 mph3.2 kmh 29.96 in1014.6 mb 0.07 in1.8 mm 0.00 in0.0 mm 0.38 in9.7 mm
06:50 PM 72.8°F22.7°C 67.3°F19.6°C 83% 0.1 mph SE0.2 kmh SE 2.0 mph3.2 kmh 29.95 in1014.2 mb 0.07 in1.8 mm 0.00 in0.0 mm 0.38 in9.7 mm
06:55 PM 72.8°F22.7°C 67.7°F19.8°C 84% Calm Calm 1.0 mph1.6 kmh 29.95 in1014.2 mb 0.07 in1.8 mm 0.00 in0.0 mm 0.38 in9.7 mm
07:00 PM 72.9°F22.7°C 68.1°F20.1°C 85% 0.4 mph SE0.6 kmh SE 2.0 mph3.2 kmh 29.96 in1014.6 mb 0.07 in1.8 mm 0.00 in0.0 mm 0.38 in9.7 mm
07:05 PM 72.8°F22.7°C 68.0°F20.0°C 85% 1.2 mph SE1.9 kmh SE 3.0 mph4.8 kmh 29.97 in1014.9 mb 0.06 in1.5 mm 0.00 in0.0 mm 0.38 in9.7 mm
07:10 PM 72.9°F22.7°C 68.5°F20.3°C 86% 1.3 mph ESE2.1 kmh ESE 3.0 mph4.8 kmh 29.97 in1014.9 mb 0.04 in1.0 mm 0.00 in0.0 mm 0.38 in9.7 mm
07:15 PM 72.9°F22.7°C 68.1°F20.1°C 85% 1.8 mph ESE2.9 kmh ESE 5.0 mph8.0 kmh 29.98 in1015.2 mb 0.02 in0.5 mm 0.00 in0.0 mm 0.38 in9.7 mm
07:20 PM 73.0°F22.8°C 68.2°F20.1°C 85% 1.3 mph SE2.1 kmh SE 5.0 mph8.0 kmh 29.99 in1015.6 mb 0.00 in0.0 mm 0.00 in0.0 mm 0.38 in9.7 mm
07:25 PM 73.1°F22.8°C 68.3°F20.2°C 85% 0.8 mph SE1.3 kmh SE 3.0 mph4.8 kmh 29.99 in1015.6 mb 0.00 in0.0 mm 0.00 in0.0 mm 0.38 in9.7 mm
07:30 PM 73.3°F22.9°C 68.8°F20.4°C 86% 0.9 mph SE1.4 kmh SE 2.0 mph3.2 kmh 29.99 in1015.6 mb 0.00 in0.0 mm 0.00 in0.0 mm 0.38 in9.7 mm
07:35 PM 73.2°F22.9°C 68.8°F20.4°C 86% 0.2 mph SE0.3 kmh SE 2.0 mph3.2 kmh 29.99 in1015.6 mb 0.00 in0.0 mm 0.00 in0.0 mm 0.38 in9.7 mm
07:40 PM 73.2°F22.9°C 68.8°F20.4°C 86% Calm Calm 2.0 mph3.2 kmh 29.99 in1015.6 mb 0.00 in0.0 mm 0.00 in0.0 mm 0.38 in9.7 mm
07:45 PM 73.0°F22.8°C 68.6°F20.3°C 86% Calm Calm 1.0 mph1.6 kmh 30.00 in1015.9 mb 0.00 in0.0 mm 0.00 in0.0 mm 0.38 in9.7 mm
07:50 PM 73.0°F22.8°C 68.6°F20.3°C 86% Calm Calm -- 30.00 in1015.9 mb 0.00 in0.0 mm 0.00 in0.0 mm 0.38 in9.7 mm
07:55 PM 73.1°F22.8°C 69.3°F20.7°C 88% Calm Calm -- 30.00 in1015.9 mb 0.00 in0.0 mm 0.00 in0.0 mm 0.38 in9.7 mm
08:00 PM 73.2°F22.9°C 70.1°F21.2°C 90% 0.1 mph SE0.2 kmh SE 1.0 mph1.6 kmh 30.00 in1015.9 mb 0.00 in0.0 mm 0.00 in0.0 mm 0.38 in9.7 mm
08:05 PM 73.2°F22.9°C 70.1°F21.2°C 90% 0.1 mph ESE0.2 kmh ESE 1.0 mph1.6 kmh 30.00 in1015.9 mb 0.00 in0.0 mm 0.00 in0.0 mm 0.38 in9.7 mm
08:10 PM 73.3°F22.9°C 70.2°F21.2°C 90% 0.5 mph SE0.8 kmh SE 2.0 mph3.2 kmh 30.00 in1015.9 mb 0.00 in0.0 mm 0.00 in0.0 mm 0.38 in9.7 mm
08:15 PM 73.4°F23.0°C 70.0°F21.1°C 89% Calm Calm 2.0 mph3.2 kmh 30.00 in1015.9 mb 0.00 in0.0 mm 0.00 in0.0 mm 0.38 in9.7 mm
08:20 PM 73.4°F23.0°C 70.0°F21.1°C 89% Calm Calm -- 30.01 in1016.3 mb 0.00 in0.0 mm 0.00 in0.0 mm 0.38 in9.7 mm
08:25 PM 73.5°F23.1°C 70.4°F21.3°C 90% Calm Calm -- 30.02 in1016.6 mb 0.00 in0.0 mm 0.00 in0.0 mm 0.38 in9.7 mm
08:30 PM 73.6°F23.1°C 70.5°F21.4°C 90% Calm Calm -- 30.02 in1016.6 mb 0.00 in0.0 mm 0.00 in0.0 mm 0.38 in9.7 mm
08:35 PM 73.5°F23.1°C 70.4°F21.3°C 90% Calm Calm -- 30.02 in1016.6 mb 0.00 in0.0 mm 0.00 in0.0 mm 0.38 in9.7 mm
08:40 PM 73.4°F23.0°C 70.3°F21.3°C 90% 0.4 mph SE0.6 kmh SE 3.0 mph4.8 kmh 30.03 in1016.9 mb 0.00 in0.0 mm 0.00 in0.0 mm 0.38 in9.7 mm
08:45 PM 73.3°F22.9°C 70.2°F21.2°C 90% Calm Calm 3.0 mph4.8 kmh 30.03 in1016.9 mb 0.00 in0.0 mm 0.00 in0.0 mm 0.38 in9.7 mm
08:50 PM 73.2°F22.9°C 70.1°F21.2°C 90% Calm Calm 1.0 mph1.6 kmh 30.02 in1016.6 mb 0.00 in0.0 mm 0.00 in0.0 mm 0.38 in9.7 mm
08:55 PM 73.1°F22.8°C 70.0°F21.1°C 90% Calm Calm 1.0 mph1.6 kmh 30.03 in1016.9 mb 0.00 in0.0 mm 0.00 in0.0 mm 0.38 in9.7 mm
09:00 PM 73.0°F22.8°C 69.9°F21.1°C 90% Calm Calm 1.0 mph1.6 kmh 30.02 in1016.6 mb 0.00 in0.0 mm 0.00 in0.0 mm 0.38 in9.7 mm
09:05 PM 72.9°F22.7°C 69.1°F20.6°C 88% 0.4 mph SW0.6 kmh SW 3.0 mph4.8 kmh 30.03 in1016.9 mb 0.00 in0.0 mm 0.00 in0.0 mm 0.38 in9.7 mm
09:10 PM 72.8°F22.7°C 68.7°F20.4°C 87% 0.1 mph NW0.2 kmh NW 3.0 mph4.8 kmh 30.03 in1016.9 mb 0.00 in0.0 mm 0.00 in0.0 mm 0.38 in9.7 mm
09:15 PM 72.6°F22.6°C 68.2°F20.1°C 86% 0.5 mph SE0.8 kmh SE 3.0 mph4.8 kmh 30.03 in1016.9 mb 0.00 in0.0 mm 0.00 in0.0 mm 0.38 in9.7 mm
09:20 PM 72.6°F22.6°C 68.2°F20.1°C 86% 0.1 mph SE0.2 kmh SE 3.0 mph4.8 kmh 30.04 in1017.3 mb 0.00 in0.0 mm 0.00 in0.0 mm 0.38 in9.7 mm
09:25 PM 72.6°F22.6°C 68.2°F20.1°C 86% 0.5 mph S0.8 kmh S 2.0 mph3.2 kmh 30.04 in1017.3 mb 0.00 in0.0 mm 0.00 in0.0 mm 0.38 in9.7 mm
09:30 PM 72.7°F22.6°C 67.9°F19.9°C 85% 0.3 mph SSW0.5 kmh SSW 2.0 mph3.2 kmh 30.04 in1017.3 mb 0.00 in0.0 mm 0.00 in0.0 mm 0.38 in9.7 mm
09:35 PM 72.7°F22.6°C 68.3°F20.2°C 86% 0.2 mph E0.3 kmh E 3.0 mph4.8 kmh 30.04 in1017.3 mb 0.00 in0.0 mm 0.00 in0.0 mm 0.38 in9.7 mm
09:40 PM 72.6°F22.6°C 68.2°F20.1°C 86% Calm Calm 3.0 mph4.8 kmh 30.05 in1017.6 mb 0.00 in0.0 mm 0.00 in0.0 mm 0.38 in9.7 mm
09:45 PM 72.6°F22.6°C 68.5°F20.3°C 87% 0.9 mph SSW1.4 kmh SSW 4.0 mph6.4 kmh 30.04 in1017.3 mb 0.00 in0.0 mm 0.00 in0.0 mm 0.38 in9.7 mm
09:50 PM 72.7°F22.6°C 68.6°F20.3°C 87% 0.8 mph S1.3 kmh S 4.0 mph6.4 kmh 30.05 in1017.6 mb 0.00 in0.0 mm 0.00 in0.0 mm 0.38 in9.7 mm
09:55 PM 72.8°F22.7°C 68.7°F20.4°C 87% 0.6 mph S1.0 kmh S 3.0 mph4.8 kmh 30.05 in1017.6 mb 0.00 in0.0 mm 0.00 in0.0 mm 0.38 in9.7 mm
10:00 PM 72.7°F22.6°C 68.6°F20.3°C 87% 0.4 mph SSW0.6 kmh SSW 2.0 mph3.2 kmh 30.05 in1017.6 mb 0.00 in0.0 mm 0.00 in0.0 mm 0.38 in9.7 mm
10:05 PM 72.6°F22.6°C 68.5°F20.3°C 87% 0.1 mph S0.2 kmh S 1.0 mph1.6 kmh 30.04 in1017.3 mb 0.00 in0.0 mm 0.00 in0.0 mm 0.38 in9.7 mm
10:10 PM 72.4°F22.4°C 68.0°F20.0°C 86% 0.5 mph S0.8 kmh S 2.0 mph3.2 kmh 30.04 in1017.3 mb 0.00 in0.0 mm 0.00 in0.0 mm 0.38 in9.7 mm
10:15 PM 72.4°F22.4°C 68.0°F20.0°C 86% Calm Calm 2.0 mph3.2 kmh 30.04 in1017.3 mb 0.00 in0.0 mm 0.00 in0.0 mm 0.38 in9.7 mm
10:20 PM 72.2°F22.3°C 67.8°F19.9°C 86% 0.1 mph SSE0.2 kmh SSE 1.0 mph1.6 kmh 30.04 in1017.3 mb 0.00 in0.0 mm 0.00 in0.0 mm 0.38 in9.7 mm
10:25 PM 72.2°F22.3°C 67.8°F19.9°C 86% Calm Calm 1.0 mph1.6 kmh 30.04 in1017.3 mb 0.00 in0.0 mm 0.00 in0.0 mm 0.38 in9.7 mm
10:30 PM 72.1°F22.3°C 67.7°F19.8°C 86% 0.1 mph SW0.2 kmh SW 2.0 mph3.2 kmh 30.04 in1017.3 mb 0.00 in0.0 mm 0.00 in0.0 mm 0.38 in9.7 mm
10:35 PM 71.9°F22.2°C 67.5°F19.7°C 86% Calm Calm 2.0 mph3.2 kmh 30.04 in1017.3 mb 0.00 in0.0 mm 0.00 in0.0 mm 0.38 in9.7 mm
10:40 PM 71.8°F22.1°C 67.4°F19.7°C 86% Calm Calm 1.0 mph1.6 kmh 30.04 in1017.3 mb 0.00 in0.0 mm 0.00 in0.0 mm 0.38 in9.7 mm
10:45 PM 71.8°F22.1°C 67.4°F19.7°C 86% Calm Calm 1.0 mph1.6 kmh 30.04 in1017.3 mb 0.00 in0.0 mm 0.00 in0.0 mm 0.38 in9.7 mm
10:50 PM 71.7°F22.1°C 67.3°F19.6°C 86% Calm Calm 1.0 mph1.6 kmh 30.04 in1017.3 mb 0.00 in0.0 mm 0.00 in0.0 mm 0.38 in9.7 mm
10:55 PM 71.5°F21.9°C 67.1°F19.5°C 86% Calm Calm -- 30.04 in1017.3 mb 0.00 in0.0 mm 0.00 in0.0 mm 0.38 in9.7 mm
11:00 PM 71.3°F21.8°C 67.2°F19.6°C 87% Calm Calm -- 30.04 in1017.3 mb 0.00 in0.0 mm 0.00 in0.0 mm 0.38 in9.7 mm
11:05 PM 71.2°F21.8°C 67.1°F19.5°C 87% Calm Calm -- 30.04 in1017.3 mb 0.00 in0.0 mm 0.00 in0.0 mm 0.38 in9.7 mm
11:10 PM 71.0°F21.7°C 66.9°F19.4°C 87% Calm Calm -- 30.04 in1017.3 mb 0.00 in0.0 mm 0.00 in0.0 mm 0.38 in9.7 mm
11:15 PM 70.9°F21.6°C 66.8°F19.3°C 87% Calm Calm -- 30.04 in1017.3 mb 0.00 in0.0 mm 0.00 in0.0 mm 0.38 in9.7 mm
11:20 PM 70.8°F21.6°C 67.1°F19.5°C 88% Calm Calm -- 30.04 in1017.3 mb 0.00 in0.0 mm 0.00 in0.0 mm 0.38 in9.7 mm
11:25 PM 70.8°F21.6°C 67.1°F19.5°C 88% Calm Calm -- 30.04 in1017.3 mb 0.00 in0.0 mm 0.00 in0.0 mm 0.38 in9.7 mm
11:30 PM 70.7°F21.5°C 67.0°F19.4°C 88% Calm Calm -- 30.04 in1017.3 mb 0.00 in0.0 mm 0.00 in0.0 mm 0.38 in9.7 mm
11:35 PM 70.6°F21.4°C 66.9°F19.4°C 88% Calm Calm -- 30.04 in1017.3 mb 0.00 in0.0 mm 0.00 in0.0 mm 0.38 in9.7 mm
11:40 PM 70.4°F21.3°C 66.7°F19.3°C 88% Calm Calm -- 30.04 in1017.3 mb 0.00 in0.0 mm 0.00 in0.0 mm 0.38 in9.7 mm
11:45 PM 70.4°F21.3°C 66.7°F19.3°C 88% Calm Calm -- 30.04 in1017.3 mb 0.00 in0.0 mm 0.00 in0.0 mm 0.38 in9.7 mm
11:50 PM 70.3°F21.3°C 67.2°F19.6°C 90% Calm Calm -- 30.03 in1016.9 mb 0.00 in0.0 mm 0.00 in0.0 mm 0.38 in9.7 mm
11:55 PM 70.3°F21.3°C 67.2°F19.6°C 90% Calm Calm -- 30.03 in1016.9 mb 0.00 in0.0 mm 0.00 in0.0 mm 0.38 in9.7 mm